Louisbourg, Canada
Current Conditions -  °F | °C
As of 6:00 AM on Wednesday 22 Oct 2014 (Local Time) from CYQY Reporting Station
Clear Clear  
Wind Chill:   Ceiling: Unl
Heat Index:   Visibility: 15mi
Dew Point:   Wind: 2mph
Humidity: 100%   Direction: NA
Pressure: 30.37"   Gusts: NA
Location:  45.92°N, 59.98°W
Report Text: CYQY 220900Z VRB02KT 15SM 03/03 A3037 RMK SLP285
Loading
Personal Weather Stations






























Interactive Weather Map
Tropical Storm Tracking
New forecast layout! Learn more

10-Day Weather Forecast

Advertisements
Track Severe Weather on mobile